Terminal Aerodrome Forecast
Issued by NWS Louisville, KY

Home | Current Version | Previous Version | Text Only | Print | Product List | Glossary On
Versions: 1 2 3 4 5 6 7 8 9 10 11 12 13 14 15 16 17 18 19 20
000
FTUS43 KLMK 231529 AAA
TAFBWG
TAF AMD
KBWG 231529Z 2315/2412 VRB03KT P6SM FEW040 SCT250
     FM231800 VRB04KT P6SM VCTS SCT050CB BKN250
     FM240000 VRB03KT P6SM BKN060=

USA.gov is the U.S. government's official web portal to all federal, state and local government web resources and services.